Time;durP1;ratioP1;P1;durP2;ratioP2;P2;SDS_P1;SDS_P2;PMS_P1;PMS_P2;Temp;Humidity;BMP_temperature;BMP_pressure;BME280_temperature;BME280_humidity;BME280_pressure;Samples;Min_cycle;Max_cycle;Signal;HPM_P1;HPM_P2
2022/03/23 00:01:23;;;;;;;74.22;52.70;;;9.90;77.90;;;;;;4918207;29;20366;-65
2022/03/23 00:03:49;;;;;;;72.07;52.20;;;9.90;77.90;;;;;;4912831;29;20090;-64
2022/03/23 00:06:16;;;;;;;64.70;49.60;;;9.90;77.90;;;;;;4914460;29;20528;-65
2022/03/23 00:08:45;;;;;;;69.20;50.22;;;9.90;78.00;;;;;;4912616;29;20056;-64
2022/03/23 00:11:10;;;;;;;69.28;50.15;;;9.90;78.10;;;;;;4921653;29;20036;-65
2022/03/23 00:13:36;;;;;;;70.28;50.50;;;9.90;78.10;;;;;;4917710;29;20110;-65
2022/03/23 00:16:04;;;;;;;74.30;53.10;;;9.80;78.10;;;;;;4927677;29;20079;-65
2022/03/23 00:18:30;;;;;;;70.72;52.08;;;9.80;78.30;;;;;;4933534;29;20480;-65
2022/03/23 00:20:56;;;;;;;66.82;51.15;;;9.70;78.40;;;;;;4923598;29;20068;-65
2022/03/23 00:23:21;;;;;;;65.13;48.70;;;9.70;78.50;;;;;;4933852;29;20048;-65
2022/03/23 00:25:47;;;;;;;72.35;50.30;;;9.70;78.50;;;;;;4927455;29;20050;-65
2022/03/23 00:28:13;;;;;;;66.47;49.92;;;9.70;78.60;;;;;;4929411;29;20043;-65
2022/03/23 00:30:39;;;;;;;69.85;50.50;;;9.60;78.70;;;;;;4923669;29;20048;-64
2022/03/23 00:33:05;;;;;;;71.40;51.38;;;9.60;78.80;;;;;;4924639;29;20048;-65
2022/03/23 00:35:31;;;;;;;66.30;49.95;;;9.60;78.80;;;;;;4917588;29;20047;-65
2022/03/23 00:38:00;;;;;;;66.85;50.47;;;9.60;78.80;;;;;;4918041;29;20090;-66
2022/03/23 00:40:28;;;;;;;68.93;48.85;;;9.60;78.90;;;;;;4924620;29;20107;-66
2022/03/23 00:42:54;;;;;;;73.45;48.55;;;9.50;79.00;;;;;;4933865;29;20048;-66
2022/03/23 00:45:20;;;;;;;66.22;48.45;;;9.50;79.10;;;;;;4913464;29;20058;-64
2022/03/23 00:47:48;;;;;;;64.05;47.40;;;9.50;79.10;;;;;;4922744;29;20047;-65
2022/03/23 00:50:14;;;;;;;70.05;49.13;;;9.40;79.30;;;;;;4914771;29;20060;-65
2022/03/23 00:52:40;;;;;;;67.47;48.65;;;9.30;79.40;;;;;;4921988;29;20053;-64
2022/03/23 00:55:10;;;;;;;66.38;48.10;;;9.30;79.50;;;;;;4909545;29;20096;-65
2022/03/23 00:57:37;;;;;;;66.15;48.88;;;9.30;79.60;;;;;;4915898;29;20094;-65
2022/03/23 01:00:06;;;;;;;64.70;46.97;;;9.20;79.60;;;;;;4902841;29;20510;-65
2022/03/23 01:02:34;;;;;;;64.57;47.55;;;9.10;79.80;;;;;;4896891;29;20041;-64
2022/03/23 01:05:01;;;;;;;65.30;47.13;;;9.10;79.90;;;;;;4897525;29;20060;-66
2022/03/23 01:07:26;;;;;;;62.17;47.28;;;9.10;80.00;;;;;;4915437;29;20048;-66
2022/03/23 01:09:52;;;;;;;71.15;48.55;;;9.00;80.00;;;;;;4897723;29;20462;-66
2022/03/23 01:12:18;;;;;;;67.00;49.70;;;8.90;80.10;;;;;;4896713;29;20045;-66
2022/03/23 01:14:44;;;;;;;68.72;47.75;;;8.90;80.30;;;;;;4896618;29;20051;-65
2022/03/23 01:17:09;;;;;;;70.18;51.00;;;8.80;80.40;;;;;;4914896;29;20044;-66
2022/03/23 01:19:36;;;;;;;65.28;48.78;;;8.80;80.50;;;;;;4917154;29;20048;-66
2022/03/23 01:22:02;;;;;;;63.42;49.58;;;8.80;80.50;;;;;;4911553;29;20051;-66
2022/03/23 01:24:27;;;;;;;66.35;51.70;;;8.70;80.60;;;;;;4912859;29;20128;-66
2022/03/23 01:26:53;;;;;;;64.43;50.22;;;8.70;80.70;;;;;;4896391;29;20044;-66
2022/03/23 01:29:19;;;;;;;75.75;51.88;;;8.60;80.70;;;;;;4897117;29;20511;-66
2022/03/23 01:31:46;;;;;;;66.50;51.67;;;8.70;80.70;;;;;;4911229;29;20052;-66
2022/03/23 01:34:12;;;;;;;79.95;51.58;;;8.60;80.80;;;;;;4912920;29;20052;-66
2022/03/23 01:36:37;;;;;;;66.70;50.90;;;8.60;80.90;;;;;;4895195;29;20054;-65
2022/03/23 01:39:03;;;;;;;70.85;51.67;;;8.60;80.90;;;;;;4913445;29;20092;-66
2022/03/23 01:41:30;;;;;;;78.75;55.30;;;8.50;81.10;;;;;;4914117;29;20044;-66
2022/03/23 01:43:55;;;;;;;68.93;53.15;;;8.50;81.10;;;;;;4912009;29;20051;-66
2022/03/23 01:46:21;;;;;;;71.45;51.13;;;8.40;81.20;;;;;;4909417;29;20501;-65
2022/03/23 01:48:47;;;;;;;77.90;54.38;;;8.40;81.30;;;;;;4913327;29;20071;-66
2022/03/23 01:51:14;;;;;;;71.78;51.05;;;8.50;81.30;;;;;;4912343;29;20044;-66
2022/03/23 01:53:40;;;;;;;68.32;51.78;;;8.40;81.50;;;;;;4926028;29;20051;-65
2022/03/23 01:56:09;;;;;;;73.40;54.88;;;8.40;81.60;;;;;;4929598;29;20047;-65
2022/03/23 01:58:36;;;;;;;67.97;52.67;;;8.40;81.50;;;;;;4931641;29;20058;-65
2022/03/23 02:01:02;;;;;;;74.38;53.75;;;8.40;81.50;;;;;;4931032;29;20040;-66
2022/03/23 02:03:28;;;;;;;69.70;53.17;;;8.30;81.60;;;;;;4931697;29;20374;-66
2022/03/23 02:05:53;;;;;;;70.72;54.88;;;8.30;81.70;;;;;;4930992;29;20086;-66
2022/03/23 02:08:19;;;;;;;72.43;50.97;;;8.30;81.90;;;;;;4930919;29;20390;-66
2022/03/23 02:10:45;;;;;;;68.07;51.92;;;8.30;81.90;;;;;;4915571;29;20044;-66
2022/03/23 02:13:11;;;;;;;72.65;51.65;;;8.40;81.80;;;;;;4931515;29;20490;-66
2022/03/23 02:15:37;;;;;;;67.40;50.03;;;8.40;81.80;;;;;;4931573;29;20055;-66
2022/03/23 02:18:04;;;;;;;71.38;51.80;;;8.30;81.90;;;;;;4930655;29;20044;-65
2022/03/23 02:20:30;;;;;;;70.22;50.85;;;8.30;82.00;;;;;;4931122;29;20039;-66
2022/03/23 02:22:56;;;;;;;68.38;49.92;;;8.30;82.00;;;;;;4930088;29;20607;-66
2022/03/23 02:25:27;;;;;;;68.82;50.28;;;8.30;82.10;;;;;;4932034;29;20075;-66
2022/03/23 02:27:54;;;;;;;64.18;51.05;;;8.30;82.20;;;;;;4922515;29;20102;-66
2022/03/23 02:30:21;;;;;;;69.45;50.28;;;8.20;82.20;;;;;;4928755;29;20072;-66
2022/03/23 02:32:48;;;;;;;70.55;50.53;;;8.20;82.30;;;;;;4924415;29;20047;-66
2022/03/23 02:35:15;;;;;;;63.47;48.67;;;8.20;82.30;;;;;;4915624;29;20527;-66
2022/03/23 02:37:41;;;;;;;72.15;51.47;;;8.10;82.40;;;;;;4913107;29;20044;-65
2022/03/23 02:40:09;;;;;;;66.00;48.95;;;8.20;82.40;;;;;;4929684;29;20047;-65
2022/03/23 02:42:37;;;;;;;66.28;49.78;;;8.20;82.50;;;;;;4931496;29;20099;-65
2022/03/23 02:45:05;;;;;;;71.78;49.60;;;8.20;82.50;;;;;;4923329;29;20036;-66
2022/03/23 02:47:30;;;;;;;67.18;50.10;;;8.20;82.60;;;;;;4921347;29;20047;-66
2022/03/23 02:49:57;;;;;;;70.85;49.78;;;8.20;82.70;;;;;;4925560;29;20087;-65
2022/03/23 02:52:22;;;;;;;60.65;48.17;;;8.20;82.70;;;;;;4921121;29;20623;-65
2022/03/23 03:03:37;;;;;;;62.47;47.03;;;8.20;82.70;;;;;;4913419;29;20146;-66
2022/03/23 03:06:06;;;;;;;65.55;47.63;;;8.20;82.90;;;;;;4920090;29;20095;-64
2022/03/23 03:08:50;;;;;;;62.85;47.75;;;8.20;82.80;;;;;;4926813;29;20047;-65
2022/03/23 03:11:17;;;;;;;63.28;47.85;;;8.20;82.80;;;;;;4931274;29;20532;-64
2022/03/23 03:13:48;;;;;;;64.47;45.78;;;8.20;82.80;;;;;;4932560;29;20048;-64
2022/03/23 03:16:14;;;;;;;60.28;46.40;;;8.20;82.80;;;;;;4920006;29;20496;-65
2022/03/23 03:18:40;;;;;;;62.17;48.15;;;8.20;82.90;;;;;;4913310;29;20119;-64
2022/03/23 03:21:08;;;;;;;69.03;48.42;;;8.30;82.90;;;;;;4916141;29;20482;-65
2022/03/23 03:23:34;;;;;;;63.78;47.83;;;8.30;82.90;;;;;;4914777;29;20074;-65
2022/03/23 03:26:05;;;;;;;59.05;45.45;;;8.30;82.80;;;;;;4924027;29;20058;-65
2022/03/23 03:28:34;;;;;;;62.15;44.75;;;8.30;82.80;;;;;;4930849;29;20054;-65
2022/03/23 03:31:05;;;;;;;60.72;46.78;;;8.40;82.80;;;;;;4920991;29;20042;-64
2022/03/23 03:33:31;;;;;;;63.85;47.67;;;8.40;82.80;;;;;;4928424;29;20055;-64
2022/03/23 03:35:57;;;;;;;60.63;47.08;;;8.40;82.80;;;;;;4923529;29;20458;-65
2022/03/23 03:38:22;;;;;;;58.08;44.50;;;8.40;82.80;;;;;;4929736;29;20079;-64
2022/03/23 03:40:48;;;;;;;57.90;44.42;;;8.40;82.80;;;;;;4930842;29;20095;-64
2022/03/23 03:43:16;;;;;;;64.57;46.50;;;8.40;82.70;;;;;;4918085;29;20063;-65
2022/03/23 03:45:42;;;;;;;55.35;44.35;;;8.50;82.80;;;;;;4894668;29;20051;-65
2022/03/23 03:48:08;;;;;;;55.58;44.58;;;8.50;82.70;;;;;;4922699;29;20044;-65
2022/03/23 03:50:34;;;;;;;64.70;45.22;;;8.40;82.70;;;;;;4924972;29;20044;-65
2022/03/23 03:53:01;;;;;;;56.45;43.50;;;8.50;82.70;;;;;;4912711;29;20052;-65
2022/03/23 03:55:26;;;;;;;57.08;45.05;;;8.40;82.70;;;;;;4915766;29;20147;-65
2022/03/23 03:57:52;;;;;;;60.53;45.63;;;8.40;82.60;;;;;;4921331;29;20499;-65
2022/03/23 04:00:17;;;;;;;58.38;45.22;;;8.40;82.60;;;;;;4927809;29;20131;-65
2022/03/23 04:02:43;;;;;;;62.95;45.53;;;8.40;82.50;;;;;;4922065;29;20044;-65
2022/03/23 04:05:09;;;;;;;58.58;44.78;;;8.30;82.50;;;;;;4914901;29;20494;-65
2022/03/23 04:07:35;;;;;;;56.28;43.92;;;8.30;82.60;;;;;;4923826;29;20384;-65
2022/03/23 04:10:05;;;;;;;57.38;42.88;;;8.30;82.60;;;;;;4923683;29;20040;-65
2022/03/23 04:12:31;;;;;;;59.22;43.22;;;8.30;82.50;;;;;;4924733;29;20052;-64
2022/03/23 04:14:57;;;;;;;58.75;43.90;;;8.20;82.50;;;;;;4930804;29;20062;-65
2022/03/23 04:17:22;;;;;;;55.47;42.95;;;8.20;82.50;;;;;;4929983;29;20054;-65
2022/03/23 04:19:48;;;;;;;63.85;46.10;;;8.20;82.40;;;;;;4924983;29;20032;-65
2022/03/23 04:22:14;;;;;;;55.80;42.03;;;8.20;82.40;;;;;;4926265;29;20416;-65
2022/03/23 04:24:39;;;;;;;59.97;41.85;;;8.20;82.50;;;;;;4926617;29;20107;-65
2022/03/23 04:27:05;;;;;;;56.78;43.38;;;8.10;82.60;;;;;;4912673;29;20043;-65
2022/03/23 04:29:31;;;;;;;55.08;42.67;;;8.20;82.60;;;;;;4929340;29;20040;-65
2022/03/23 04:31:57;;;;;;;54.10;40.83;;;8.20;82.60;;;;;;4926774;29;20054;-65
2022/03/23 04:34:22;;;;;;;58.65;42.40;;;8.20;82.50;;;;;;4915797;29;20801;-65
2022/03/23 04:36:48;;;;;;;61.40;43.67;;;8.20;82.50;;;;;;4917529;29;20048;-64
2022/03/23 04:39:14;;;;;;;58.58;42.33;;;8.20;82.50;;;;;;4928479;29;20040;-64
2022/03/23 04:41:40;;;;;;;57.08;42.70;;;8.20;82.50;;;;;;4920974;29;20055;-64
2022/03/23 04:44:06;;;;;;;55.63;42.22;;;8.20;82.50;;;;;;4930483;29;20440;-65
2022/03/23 04:46:32;;;;;;;54.85;40.05;;;8.20;82.50;;;;;;4917463;29;20052;-65
2022/03/23 04:48:57;;;;;;;54.20;41.28;;;8.20;82.50;;;;;;4924724;29;20040;-65
2022/03/23 04:51:23;;;;;;;57.15;42.60;;;8.10;82.60;;;;;;4923056;29;20190;-64
2022/03/23 04:53:49;;;;;;;51.70;40.15;;;8.20;82.50;;;;;;4899974;29;20059;-64
2022/03/23 04:56:14;;;;;;;55.03;39.92;;;8.10;82.50;;;;;;4909836;29;20123;-64
2022/03/23 04:58:42;;;;;;;51.03;40.42;;;8.10;82.50;;;;;;4912023;29;20087;-65
2022/03/23 05:01:08;;;;;;;52.50;39.85;;;8.20;82.60;;;;;;4911796;29;20457;-65
2022/03/23 05:03:34;;;;;;;57.45;41.58;;;8.20;82.60;;;;;;4915637;29;20072;-65
2022/03/23 05:06:00;;;;;;;52.70;40.35;;;8.20;82.50;;;;;;4909553;29;20110;-65
2022/03/23 05:08:26;;;;;;;56.80;41.28;;;8.10;82.50;;;;;;4915648;29;20051;-65
2022/03/23 05:10:52;;;;;;;52.13;40.47;;;8.10;82.60;;;;;;4914043;29;20051;-66
2022/03/23 05:13:18;;;;;;;52.20;40.20;;;8.20;82.60;;;;;;4915218;29;20044;-66
2022/03/23 05:15:43;;;;;;;59.05;40.10;;;8.20;82.60;;;;;;4907105;29;20551;-66
2022/03/23 05:18:09;;;;;;;53.38;40.85;;;8.20;82.60;;;;;;4899759;29;20048;-66
2022/03/23 05:20:35;;;;;;;50.05;39.63;;;8.20;82.70;;;;;;4913978;29;20135;-66
2022/03/23 05:23:00;;;;;;;49.75;38.75;;;8.20;82.70;;;;;;4902470;29;20051;-66
2022/03/23 05:25:26;;;;;;;52.80;39.60;;;8.20;82.70;;;;;;4901411;29;20502;-66
2022/03/23 05:27:52;;;;;;;48.92;39.63;;;8.20;82.70;;;;;;4900121;29;20342;-66
2022/03/23 05:30:18;;;;;;;52.10;41.72;;;8.20;82.60;;;;;;4896563;29;20463;-65
2022/03/23 05:32:44;;;;;;;53.88;39.90;;;8.20;82.60;;;;;;4903287;29;20119;-64
2022/03/23 05:35:11;;;;;;;61.40;42.15;;;8.20;82.60;;;;;;4902444;29;20157;-65
2022/03/23 05:37:37;;;;;;;58.47;41.15;;;8.20;82.70;;;;;;4910622;29;21113;-64
2022/03/23 05:40:07;;;;;;;59.10;39.97;;;8.20;82.70;;;;;;4912831;29;20040;-65
2022/03/23 05:42:33;;;;;;;63.28;43.25;;;8.20;82.60;;;;;;4908237;29;20068;-65
2022/03/23 05:44:58;;;;;;;66.53;46.40;;;8.30;82.60;;;;;;4905968;29;20075;-67
2022/03/23 05:47:24;;;;;;;59.17;44.10;;;8.30;82.50;;;;;;4909443;29;20051;-66
2022/03/23 05:49:50;;;;;;;61.28;46.00;;;8.30;82.40;;;;;;4904352;29;20076;-66
2022/03/23 05:52:16;;;;;;;60.90;45.60;;;8.20;82.40;;;;;;4897302;29;20502;-66
2022/03/23 05:54:41;;;;;;;62.08;45.42;;;8.20;82.40;;;;;;4923512;29;20106;-66
2022/03/23 05:57:07;;;;;;;62.72;45.95;;;8.30;82.30;;;;;;4917822;29;20453;-66
2022/03/23 05:59:33;;;;;;;57.92;43.53;;;8.20;82.20;;;;;;4921205;29;20047;-65
2022/03/23 06:01:59;;;;;;;68.95;46.85;;;8.20;82.20;;;;;;4917229;29;20382;-66
2022/03/23 06:04:25;;;;;;;64.25;45.40;;;8.20;82.20;;;;;;4916246;29;20131;-65
2022/03/23 06:06:52;;;;;;;61.28;45.58;;;8.20;82.10;;;;;;4928395;29;20160;-66
2022/03/23 06:09:19;;;;;;;58.55;44.22;;;8.20;82.20;;;;;;4924133;29;20056;-66
2022/03/23 06:11:44;;;;;;;62.28;43.50;;;8.20;82.20;;;;;;4931270;29;20047;-65
2022/03/23 06:14:10;;;;;;;63.22;43.33;;;8.20;82.20;;;;;;4932723;29;20049;-65
2022/03/23 06:16:35;;;;;;;66.40;44.70;;;8.30;82.20;;;;;;4920077;29;20048;-65
2022/03/23 06:19:01;;;;;;;57.35;42.63;;;8.30;82.20;;;;;;4927589;29;20044;-65
2022/03/23 06:21:27;;;;;;;64.57;42.85;;;8.40;82.20;;;;;;4929523;29;20466;-65
2022/03/23 06:23:52;;;;;;;54.92;39.55;;;8.40;82.10;;;;;;4920124;29;20044;-66
2022/03/23 06:26:18;;;;;;;55.58;40.47;;;8.40;82.10;;;;;;4924493;29;20047;-66
2022/03/23 06:28:44;;;;;;;50.35;38.13;;;8.40;82.10;;;;;;4916022;29;20059;-66
2022/03/23 06:31:09;;;;;;;53.33;36.92;;;8.50;82.10;;;;;;4926522;29;20039;-66
2022/03/23 06:33:35;;;;;;;52.15;38.08;;;8.50;82.20;;;;;;4913116;29;20075;-65
2022/03/23 06:36:01;;;;;;;50.45;37.75;;;8.50;82.20;;;;;;4915094;29;20477;-68
2022/03/23 06:38:27;;;;;;;55.50;41.70;;;8.60;82.10;;;;;;4912265;29;20044;-66
2022/03/23 06:40:52;;;;;;;59.58;44.65;;;8.60;82.20;;;;;;4918472;29;20040;-65
2022/03/23 06:43:18;;;;;;;59.53;44.05;;;8.70;82.10;;;;;;4931230;29;20128;-66
2022/03/23 06:45:44;;;;;;;61.35;44.22;;;8.70;82.00;;;;;;4932980;29;20126;-65
2022/03/23 06:48:10;;;;;;;66.43;45.13;;;8.70;82.00;;;;;;4924807;29;20433;-66
2022/03/23 06:50:36;;;;;;;61.17;44.45;;;8.70;82.00;;;;;;4896135;29;20047;-66
2022/03/23 06:53:02;;;;;;;62.13;44.83;;;8.80;82.10;;;;;;4917300;29;20529;-66
2022/03/23 06:55:28;;;;;;;62.08;45.05;;;8.80;82.00;;;;;;4912197;29;20052;-65
2022/03/23 06:57:54;;;;;;;57.70;44.80;;;8.80;82.00;;;;;;4916967;29;20055;-65
2022/03/23 07:00:20;;;;;;;59.78;46.10;;;8.90;82.00;;;;;;4924503;29;20035;-65
2022/03/23 07:02:48;;;;;;;59.00;45.42;;;8.90;81.90;;;;;;4931769;29;20094;-64
2022/03/23 07:05:15;;;;;;;63.15;45.15;;;8.90;81.90;;;;;;4925915;29;20070;-65
2022/03/23 07:10:26;;;;;;;58.33;44.10;;;9.00;81.80;;;;;;4931438;29;20052;-66
2022/03/23 07:12:51;;;;;;;56.20;44.72;;;9.10;81.80;;;;;;4931955;29;20039;-64
2022/03/23 07:15:17;;;;;;;63.22;46.95;;;9.00;81.90;;;;;;4922189;29;20493;-65
2022/03/23 07:17:43;;;;;;;66.50;45.88;;;9.10;82.00;;;;;;4913836;29;20475;-65
2022/03/23 07:20:09;;;;;;;61.95;45.10;;;9.10;82.00;;;;;;4923412;29;20123;-65
2022/03/23 07:22:35;;;;;;;43.53;27.60;;;9.20;82.00;;;;;;4926479;29;20060;-65
2022/03/23 07:25:01;;;;;;;66.60;48.70;;;9.70;83.90;;;;;;4912587;29;20047;-65
2022/03/23 07:27:27;;;;;;;63.90;47.72;;;9.90;82.80;;;;;;4912977;29;20131;-65
2022/03/23 07:29:52;;;;;;;65.40;47.95;;;10.00;81.70;;;;;;4917080;29;20055;-65
2022/03/23 07:32:18;;;;;;;64.45;46.78;;;10.00;81.20;;;;;;4917617;29;20055;-65
2022/03/23 07:34:44;;;;;;;62.55;46.88;;;10.00;80.90;;;;;;4913157;29;20482;-65
2022/03/23 07:37:09;;;;;;;64.10;47.50;;;10.00;80.70;;;;;;4912722;29;20056;-64
2022/03/23 07:39:35;;;;;;;62.25;45.72;;;10.00;80.70;;;;;;4912783;29;20043;-64
2022/03/23 07:42:02;;;;;;;65.40;46.90;;;10.10;80.70;;;;;;4924160;29;20142;-64
2022/03/23 07:44:29;;;;;;;65.75;46.53;;;10.10;80.60;;;;;;4931740;29;20525;-65
2022/03/23 07:46:55;;;;;;;60.50;46.10;;;10.10;80.60;;;;;;4921777;29;20139;-65
2022/03/23 07:49:21;;;;;;;60.00;44.22;;;10.10;80.60;;;;;;4927787;29;20587;-64
2022/03/23 07:51:46;;;;;;;60.58;46.35;;;10.20;80.60;;;;;;4921312;29;20040;-64
2022/03/23 07:54:12;;;;;;;63.20;44.35;;;10.20;80.50;;;;;;4921527;29;20047;-64
2022/03/23 07:56:38;;;;;;;58.05;43.22;;;10.30;80.40;;;;;;4924009;29;20134;-65
2022/03/23 07:59:04;;;;;;;58.67;41.95;;;10.30;80.30;;;;;;4915311;29;20047;-65
2022/03/23 08:01:30;;;;;;;58.35;42.50;;;10.30;80.20;;;;;;4917590;29;20095;-64
2022/03/23 08:03:55;;;;;;;54.35;39.88;;;10.50;80.10;;;;;;4927374;29;20048;-65
2022/03/23 08:06:21;;;;;;;56.70;41.83;;;10.50;79.90;;;;;;4927924;29;20040;-65
2022/03/23 08:08:46;;;;;;;56.00;42.08;;;10.60;79.80;;;;;;4930054;29;20055;-65
2022/03/23 08:11:12;;;;;;;53.63;40.00;;;10.60;79.60;;;;;;4928168;29;20445;-65
2022/03/23 08:13:37;;;;;;;54.40;40.95;;;10.70;79.50;;;;;;4922376;29;20040;-66
2022/03/23 08:16:05;;;;;;;55.05;41.63;;;10.80;79.50;;;;;;4919621;29;20577;-64
2022/03/23 08:18:32;;;;;;;53.72;39.55;;;10.90;79.30;;;;;;4912620;29;20131;-64
2022/03/23 08:20:58;;;;;;;54.08;39.90;;;10.90;79.10;;;;;;4912748;29;20468;-64
2022/03/23 08:23:25;;;;;;;54.10;39.80;;;11.00;79.00;;;;;;4925464;29;20046;-65
2022/03/23 08:25:51;;;;;;;54.15;39.40;;;11.10;78.80;;;;;;4935771;29;20466;-65
2022/03/23 08:28:17;;;;;;;54.00;39.72;;;11.20;78.60;;;;;;4924214;29;20055;-64
2022/03/23 08:30:43;;;;;;;54.10;40.03;;;11.30;78.50;;;;;;4926959;29;20100;-64
2022/03/23 08:33:09;;;;;;;51.20;35.88;;;11.40;78.40;;;;;;4926023;29;20497;-65
2022/03/23 08:35:36;;;;;;;55.05;37.75;;;11.50;78.20;;;;;;4920545;29;20553;-65
2022/03/23 08:38:02;;;;;;;61.10;36.70;;;11.60;77.90;;;;;;4922576;29;20495;-65
2022/03/23 08:40:29;;;;;;;55.72;37.67;;;11.60;77.50;;;;;;4922741;29;20087;-65
2022/03/23 08:42:55;;;;;;;50.08;35.58;;;11.70;77.20;;;;;;4926233;29;20048;-65
2022/03/23 08:45:21;;;;;;;50.22;34.25;;;11.80;76.80;;;;;;4930612;29;20485;-65
2022/03/23 08:47:49;;;;;;;51.58;34.85;;;11.90;76.50;;;;;;4933255;29;20127;-65
2022/03/23 08:50:16;;;;;;;48.15;32.53;;;12.00;76.20;;;;;;4924948;29;20054;-64
2022/03/23 08:52:42;;;;;;;46.97;34.50;;;12.00;76.00;;;;;;4932689;29;20090;-64
2022/03/23 08:55:09;;;;;;;24.88;17.48;;;12.10;75.80;;;;;;4928631;29;20051;-76
2022/03/23 08:57:36;;;;;;;33.80;23.98;;;12.30;75.80;;;;;;4923473;29;20067;-75
2022/03/23 09:00:05;;;;;;;45.95;31.65;;;12.70;75.90;;;;;;4920132;29;20056;-75
2022/03/23 09:02:31;;;;;;;44.28;32.90;;;13.20;73.90;;;;;;4921600;29;20434;-64
2022/03/23 09:04:57;;;;;;;50.08;33.83;;;13.60;73.00;;;;;;4934385;29;20103;-64
2022/03/23 09:07:22;;;;;;;44.60;32.03;;;13.60;72.40;;;;;;4932866;29;20056;-64
2022/03/23 09:09:48;;;;;;;52.15;32.75;;;13.50;72.30;;;;;;4921539;29;20496;-64
2022/03/23 09:12:13;;;;;;;46.75;31.30;;;13.50;72.10;;;;;;4915623;29;20625;-66
2022/03/23 09:14:39;;;;;;;45.80;32.33;;;13.40;72.30;;;;;;4914724;29;20048;-64
2022/03/23 09:17:05;;;;;;;50.83;33.35;;;13.40;72.50;;;;;;4915372;29;20406;-66
2022/03/23 09:19:31;;;;;;;49.15;31.73;;;13.40;72.50;;;;;;4916116;29;20084;-65
2022/03/23 09:21:59;;;;;;;45.55;31.52;;;13.50;72.60;;;;;;4932882;29;20051;-65
2022/03/23 09:24:25;;;;;;;49.00;32.80;;;13.50;72.60;;;;;;4918401;29;20131;-68
2022/03/23 09:26:52;;;;;;;50.08;31.08;;;13.60;72.60;;;;;;4915252;29;20436;-67
2022/03/23 09:29:18;;;;;;;37.80;28.65;;;13.60;72.10;;;;;;4916137;29;20048;-66
2022/03/23 09:31:43;;;;;;;43.30;27.83;;;13.60;71.90;;;;;;4931469;29;20469;-62
2022/03/23 09:34:09;;;;;;;43.17;27.83;;;13.80;71.60;;;;;;4934324;29;20055;-66
2022/03/23 09:39:19;;;;;;;49.58;29.65;;;14.70;69.30;;;;;;4916053;29;20563;-65
2022/03/23 09:41:45;;;;;;;38.20;26.77;;;14.80;68.90;;;;;;4926631;29;20054;-65
2022/03/23 09:44:12;;;;;;;39.50;28.25;;;14.80;68.20;;;;;;4933547;29;20040;-65
2022/03/23 09:46:38;;;;;;;35.38;25.38;;;14.70;66.80;;;;;;4933587;29;20055;-65
2022/03/23 09:49:06;;;;;;;43.53;27.40;;;14.60;66.70;;;;;;4928152;29;20413;-66
2022/03/23 09:51:34;;;;;;;48.30;26.23;;;14.60;66.70;;;;;;4933183;29;20058;-66
2022/03/23 09:54:01;;;;;;;44.83;26.83;;;14.60;66.30;;;;;;4917360;29;20055;-65
2022/03/23 09:56:27;;;;;;;39.40;27.08;;;14.60;66.10;;;;;;4920381;29;20150;-66
2022/03/23 09:58:53;;;;;;;38.47;27.35;;;14.60;66.20;;;;;;4929116;29;20056;-66
2022/03/23 10:01:28;;;;;;;47.42;28.00;;;14.60;66.30;;;;;;4924775;29;20046;-65
2022/03/23 10:04:06;;;;;;;44.65;27.98;;;14.60;65.70;;;;;;4930933;29;20106;-67
2022/03/23 10:06:53;;;;;;;47.58;27.50;;;14.60;65.30;;;;;;4916427;29;20052;-66
2022/03/23 10:09:53;;;;;;;41.63;26.83;;;14.70;65.20;;;;;;4936259;29;20166;-66
2022/03/23 10:12:56;;;;;;;41.47;26.58;;;14.80;64.30;;;;;;4938240;29;20058;-66
2022/03/23 10:16:08;;;;;;;37.38;26.33;;;14.90;64.70;;;;;;4931103;29;20052;-67
2022/03/23 10:18:57;;;;;;;43.22;25.38;;;15.00;64.10;;;;;;4916011;29;20052;-66
2022/03/23 10:21:25;;;;;;;34.10;25.08;;;15.10;63.30;;;;;;4914087;29;20056;-65
2022/03/23 10:24:11;;;;;;;38.78;25.42;;;15.10;63.20;;;;;;4914954;29;20095;-65
2022/03/23 10:26:38;;;;;;;38.60;25.70;;;15.20;62.00;;;;;;4902503;29;20063;-67
2022/03/23 10:29:10;;;;;;;33.60;23.73;;;15.20;62.30;;;;;;4921893;29;20127;-66
2022/03/23 10:31:36;;;;;;;36.92;23.65;;;15.30;62.10;;;;;;4913956;29;20059;-67
2022/03/23 10:34:08;;;;;;;36.95;23.48;;;15.40;61.90;;;;;;4913996;29;20044;-68
2022/03/23 10:36:51;;;;;;;44.90;23.63;;;15.50;60.40;;;;;;4897143;29;20177;-68
2022/03/23 10:39:19;;;;;;;38.58;23.27;;;15.40;59.50;;;;;;4932928;29;20062;-68
2022/03/23 10:42:00;;;;;;;33.65;21.30;;;15.50;59.00;;;;;;4932767;29;20048;-68
2022/03/23 10:44:26;;;;;;;30.35;21.42;;;15.60;57.60;;;;;;4932908;29;20093;-67
2022/03/23 10:46:56;;;;;;;32.72;22.17;;;15.60;57.80;;;;;;4929143;29;20063;-67
2022/03/23 10:49:38;;;;;;;34.75;22.33;;;15.70;57.30;;;;;;4913849;29;20650;-67
2022/03/23 10:52:15;;;;;;;34.05;19.33;;;15.80;56.50;;;;;;4913755;29;20083;-67
2022/03/23 10:55:10;;;;;;;42.15;23.20;;;15.90;55.70;;;;;;4913693;29;20059;-67
2022/03/23 10:58:16;;;;;;;33.42;19.63;;;15.90;54.60;;;;;;4920622;29;20051;-68
2022/03/23 11:00:42;;;;;;;29.83;20.92;;;16.00;53.50;;;;;;4921857;29;20114;-67
2022/03/23 11:03:09;;;;;;;27.17;18.92;;;16.00;54.30;;;;;;4923334;29;20048;-66
2022/03/23 11:05:37;;;;;;;29.70;18.20;;;16.10;52.70;;;;;;4917432;29;20052;-67
2022/03/23 11:08:10;;;;;;;35.85;19.75;;;16.20;51.80;;;;;;4913088;29;20048;-68
2022/03/23 11:16:31;;;;;;;27.40;17.40;;;16.40;50.80;;;;;;4922675;29;20056;-68
2022/03/23 11:19:10;;;;;;;36.83;17.58;;;16.50;49.80;;;;;;4941907;29;20492;-67
2022/03/23 11:22:04;;;;;;;27.92;16.90;;;16.50;47.90;;;;;;4921321;29;20052;-68
2022/03/23 11:24:41;;;;;;;27.75;17.75;;;16.60;46.20;;;;;;4900786;29;20146;-71
2022/03/23 11:27:12;;;;;;;28.00;17.42;;;16.60;47.80;;;;;;4923585;29;20126;-70
2022/03/23 11:29:39;;;;;;;27.38;17.17;;;16.60;48.80;;;;;;4922006;29;20111;-69
2022/03/23 11:32:16;;;;;;;26.73;16.13;;;16.70;48.20;;;;;;4926117;29;20044;-69
2022/03/23 11:34:48;;;;;;;27.02;16.48;;;16.90;47.90;;;;;;4918495;29;20044;-70
2022/03/23 11:37:17;;;;;;;24.40;13.85;;;16.90;47.70;;;;;;4922408;29;20076;-69
2022/03/23 11:39:43;;;;;;;28.73;18.13;;;17.00;47.40;;;;;;4907826;29;20056;-69
2022/03/23 11:42:12;;;;;;;31.75;17.30;;;17.10;47.80;;;;;;4918209;29;20502;-69
2022/03/23 11:44:40;;;;;;;29.85;16.83;;;17.10;46.50;;;;;;4923136;29;20415;-69
2022/03/23 11:47:34;;;;;;;26.92;16.30;;;17.20;46.20;;;;;;4927850;29;20501;-69
2022/03/23 11:50:21;;;;;;;27.63;17.17;;;17.20;46.40;;;;;;4921207;29;20445;-69
2022/03/23 11:53:08;;;;;;;30.85;19.77;;;17.30;45.70;;;;;;4928858;29;20048;-70
2022/03/23 11:55:40;;;;;;;30.23;17.85;;;17.30;44.20;;;;;;4918882;29;20044;-69
2022/03/23 11:58:15;;;;;;;;;;;17.30;43.80;;;;;;4922401;29;20281;-69
2022/03/23 12:00:44;;;;;;;30.02;17.83;;;17.20;42.10;;;;;;4923519;29;20363;-69
2022/03/23 12:03:10;;;;;;;30.83;19.50;;;17.30;44.40;;;;;;4938036;29;20043;-69
2022/03/23 12:05:47;;;;;;;32.70;19.60;;;17.30;44.10;;;;;;4931635;29;20044;-70
2022/03/23 12:08:14;;;;;;;34.28;20.75;;;17.30;43.60;;;;;;4931578;29;20045;-69
2022/03/23 12:10:43;;;;;;;28.50;19.52;;;17.30;44.10;;;;;;4931380;29;20101;-70
2022/03/23 12:13:13;;;;;;;27.75;19.60;;;17.40;43.00;;;;;;4925455;29;20067;-64
2022/03/23 12:15:58;;;;;;;34.95;19.42;;;17.40;43.00;;;;;;4916199;29;20348;-67
2022/03/23 12:18:59;;;;;;;26.60;17.77;;;17.50;41.10;;;;;;4924709;29;20059;-69
2022/03/23 12:21:29;;;;;;;27.63;18.02;;;17.60;42.20;;;;;;4929089;29;20059;-67
2022/03/23 12:24:04;;;;;;;27.73;18.00;;;17.60;42.20;;;;;;4933862;29;20031;-68
2022/03/23 12:26:36;;;;;;;30.65;18.58;;;17.60;42.30;;;;;;4933141;29;20059;-68
2022/03/23 12:29:13;;;;;;;35.05;18.00;;;17.60;42.30;;;;;;4931401;29;20138;-68
2022/03/23 12:31:40;;;;;;;29.65;18.45;;;17.70;42.20;;;;;;4934179;29;20048;-67
2022/03/23 12:34:20;;;;;;;34.00;18.42;;;17.80;42.80;;;;;;4933240;29;20123;-69
2022/03/23 12:37:01;;;;;;;36.15;17.95;;;17.80;41.60;;;;;;4932861;29;20051;-68
2022/03/23 12:39:29;;;;;;;26.75;16.58;;;17.90;42.60;;;;;;4932987;29;20071;-69
2022/03/23 12:42:20;;;;;;;25.42;14.95;;;17.90;42.90;;;;;;4934140;29;20043;-69
2022/03/23 12:45:10;;;;;;;24.08;13.75;;;18.00;43.30;;;;;;4932922;29;21081;-68
2022/03/23 12:47:47;;;;;;;34.35;14.02;;;18.10;43.10;;;;;;4932648;29;20470;-67
2022/03/23 12:58:37;;;;;;;16.98;9.85;;;18.20;41.60;;;;;;4932508;29;20043;-68
2022/03/23 13:01:11;;;;;;;21.75;11.15;;;18.30;41.80;;;;;;4935266;29;20110;-68
2022/03/23 13:03:43;;;;;;;20.80;10.95;;;18.40;41.80;;;;;;4909248;29;20087;-67
2022/03/23 13:06:10;;;;;;;18.35;9.52;;;18.40;41.00;;;;;;4934073;29;20493;-68
2022/03/23 13:08:50;;;;;;;25.27;12.20;;;18.40;41.10;;;;;;4934742;29;20048;-68